X  Schlie├čen METAR Luftfahrt Wetterdaten     EIDW Dublin Airport
Temperatur
16°C Temperatur
11°C Taupunkt
72% Feuchtigkeit



Wind
1 M/S
3 MPS
5 KM/S
3 KTS



Kein Wind
N
Aktuelle Wetterlage

Klar Klar
Luftdruck 1023.92 (hPa) - 30.24 (inHg)
Sichtweite 6.2 (Meile) - 10 (Km)
Flughafen
Flughafen Code EIDW

Position : Dublin Airport
Entfernung: 17 (Km)

Metar:
EIDW 102030Z VRB03KT CAVOK 16/11 Q1024 NOSIG

Zeit: 10-08-2022 21:30 IST